createdAt,value
2023-05-19T00:01:09.162Z,99.90
2023-05-19T00:03:40.630Z,99.90
2023-05-19T00:06:10.457Z,99.90
2023-05-19T00:08:37.925Z,99.90
2023-05-19T00:11:04.781Z,99.90
2023-05-19T00:13:31.581Z,99.90
2023-05-19T00:15:58.431Z,99.90
2023-05-19T00:18:25.104Z,99.90
2023-05-19T00:20:52.519Z,99.90
2023-05-19T00:23:19.297Z,99.90
2023-05-19T00:25:46.010Z,99.90
2023-05-19T00:28:12.813Z,99.90
2023-05-19T00:30:39.477Z,99.90
2023-05-19T00:33:06.277Z,99.90
2023-05-19T00:35:33.499Z,99.90
2023-05-19T00:38:00.363Z,99.90
2023-05-19T00:40:27.141Z,99.90
2023-05-19T00:42:53.979Z,99.90
2023-05-19T00:45:20.954Z,99.90
2023-05-19T00:47:48.941Z,99.90
2023-05-19T00:50:15.710Z,99.90
2023-05-19T00:52:42.418Z,99.90
2023-05-19T00:55:09.809Z,99.90
2023-05-19T00:57:36.662Z,99.90
2023-05-19T01:00:04.232Z,99.90
2023-05-19T01:02:32.477Z,99.90
2023-05-19T01:04:59.350Z,99.90
2023-05-19T01:07:26.050Z,99.90
2023-05-19T01:09:52.799Z,99.90
2023-05-19T01:12:19.651Z,99.90
2023-05-19T01:14:46.427Z,99.90
2023-05-19T01:17:16.346Z,99.90
2023-05-19T01:19:43.543Z,99.90
2023-05-19T01:22:23.635Z,99.90
2023-05-19T01:25:05.238Z,99.90
2023-05-19T01:27:35.053Z,99.90
2023-05-19T01:30:11.201Z,99.90
2023-05-19T01:32:38.307Z,99.90
2023-05-19T01:35:05.295Z,99.90
2023-05-19T01:37:32.090Z,99.90
2023-05-19T01:39:58.822Z,99.90
2023-05-19T01:42:25.580Z,99.90
2023-05-19T01:44:52.292Z,99.90
2023-05-19T01:47:19.003Z,99.90
2023-05-19T01:49:46.306Z,99.90
2023-05-19T01:52:12.977Z,99.90
2023-05-19T01:54:39.721Z,99.90
2023-05-19T01:57:06.502Z,99.90
2023-05-19T01:59:47.534Z,99.90
2023-05-19T02:02:43.777Z,99.90
2023-05-19T02:05:14.260Z,99.90
2023-05-19T02:07:44.636Z,99.90
2023-05-19T02:10:19.464Z,99.90
2023-05-19T02:12:46.113Z,99.90
2023-05-19T02:15:22.413Z,99.90
2023-05-19T02:17:51.814Z,99.90
2023-05-19T02:20:18.863Z,99.90
2023-05-19T02:22:45.724Z,99.90
2023-05-19T02:25:12.493Z,99.90
2023-05-19T02:27:39.264Z,99.90
2023-05-19T02:30:06.524Z,99.90
2023-05-19T02:32:33.352Z,99.90
2023-05-19T02:35:00.198Z,99.90
2023-05-19T02:37:31.187Z,99.90
2023-05-19T02:39:58.157Z,99.90
2023-05-19T02:42:24.878Z,99.90
2023-05-19T02:44:52.570Z,99.90
2023-05-19T02:47:19.283Z,99.90
2023-05-19T02:49:46.080Z,99.90
2023-05-19T02:52:12.828Z,99.90
2023-05-19T02:54:39.486Z,99.90
2023-05-19T02:57:06.932Z,99.90
2023-05-19T02:59:33.745Z,99.90
2023-05-19T03:02:01.506Z,99.90
2023-05-19T03:04:29.885Z,99.90
2023-05-19T03:06:57.407Z,99.90
2023-05-19T03:09:24.170Z,99.90
2023-05-19T03:11:51.036Z,99.90
2023-05-19T03:14:18.600Z,99.90
2023-05-19T03:16:45.550Z,99.90
2023-05-19T03:19:12.636Z,99.90
2023-05-19T03:21:39.507Z,99.90
2023-05-19T03:24:06.741Z,99.90
2023-05-19T03:26:33.550Z,99.90
2023-05-19T03:29:01.035Z,99.90
2023-05-19T03:31:27.896Z,99.90
2023-05-19T03:33:54.664Z,99.90
2023-05-19T03:36:22.190Z,99.90
2023-05-19T03:38:48.991Z,99.90
2023-05-19T03:41:15.693Z,99.90
2023-05-19T03:43:42.417Z,99.90
2023-05-19T03:46:09.213Z,99.90
2023-05-19T03:48:36.094Z,99.90
2023-05-19T03:51:04.456Z,99.90
2023-05-19T03:53:31.187Z,99.90
2023-05-19T03:55:58.011Z,99.90
2023-05-19T03:58:24.988Z,99.90
2023-05-19T04:00:51.690Z,99.90
2023-05-19T04:03:18.562Z,99.90
2023-05-19T04:05:45.350Z,99.90
2023-05-19T04:08:12.120Z,99.90
2023-05-19T04:10:38.876Z,99.90
2023-05-19T04:13:05.629Z,99.90
2023-05-19T04:15:32.386Z,99.90
2023-05-19T04:17:59.284Z,99.90
2023-05-19T04:20:26.040Z,99.90
2023-05-19T04:22:52.744Z,99.90
2023-05-19T04:25:20.268Z,99.90
2023-05-19T04:27:48.259Z,99.90
2023-05-19T04:30:22.081Z,99.90
2023-05-19T04:32:51.021Z,99.90
2023-05-19T04:35:17.909Z,99.90
2023-05-19T04:37:46.054Z,99.90
2023-05-19T04:40:13.123Z,99.90
2023-05-19T04:42:42.831Z,99.90
2023-05-19T04:45:09.817Z,99.90
2023-05-19T04:47:39.346Z,99.90
2023-05-19T04:50:07.448Z,99.90
2023-05-19T04:52:34.181Z,99.90
2023-05-19T04:55:01.272Z,99.90
2023-05-19T04:57:27.994Z,99.90
2023-05-19T04:59:59.920Z,99.90
2023-05-19T05:02:29.623Z,99.90
2023-05-19T05:04:56.730Z,99.90
2023-05-19T05:07:23.711Z,99.90
2023-05-19T05:09:50.549Z,99.90
2023-05-19T05:12:21.249Z,99.90
2023-05-19T05:14:48.051Z,99.90
2023-05-19T05:17:14.918Z,99.90
2023-05-19T05:19:41.813Z,99.90
2023-05-19T05:22:08.749Z,99.90
2023-05-19T05:24:35.622Z,99.90
2023-05-19T05:27:02.304Z,99.90
2023-05-19T05:29:29.076Z,99.90
2023-05-19T05:31:56.003Z,99.90
2023-05-19T05:34:22.663Z,99.90
2023-05-19T05:36:49.360Z,99.90
2023-05-19T05:39:16.079Z,99.90
2023-05-19T05:41:42.742Z,99.90
2023-05-19T05:44:09.465Z,99.90
2023-05-19T05:46:36.231Z,99.90
2023-05-19T05:49:03.076Z,99.90
2023-05-19T05:51:29.991Z,99.90
2023-05-19T05:53:56.749Z,99.90
2023-05-19T05:56:23.576Z,99.90
2023-05-19T05:58:50.738Z,99.90
2023-05-19T06:01:17.965Z,99.90
2023-05-19T06:03:45.130Z,99.90
2023-05-19T06:06:12.044Z,99.90
2023-05-19T06:08:38.834Z,99.90
2023-05-19T06:11:09.367Z,99.90
2023-05-19T06:13:36.336Z,99.90
2023-05-19T06:16:03.262Z,99.90
2023-05-19T06:18:30.065Z,99.90
2023-05-19T06:20:56.786Z,99.90
2023-05-19T06:23:23.992Z,99.90
2023-05-19T06:25:50.784Z,99.90
2023-05-19T06:28:17.574Z,99.90
2023-05-19T06:30:44.315Z,99.90
2023-05-19T06:33:11.157Z,99.90
2023-05-19T06:35:38.023Z,99.90
2023-05-19T06:38:04.703Z,99.90
2023-05-19T06:40:31.680Z,99.90
2023-05-19T06:42:58.580Z,99.90
2023-05-19T06:45:25.495Z,99.90
2023-05-19T06:47:52.300Z,99.90
2023-05-19T06:50:19.113Z,99.90
2023-05-19T06:52:47.151Z,99.90
2023-05-19T06:55:13.814Z,99.90
2023-05-19T06:57:40.646Z,99.90
2023-05-19T07:00:11.534Z,99.90
2023-05-19T07:02:38.798Z,99.90
2023-05-19T07:05:05.870Z,99.90
2023-05-19T07:07:35.706Z,99.90
2023-05-19T07:10:02.444Z,99.90
2023-05-19T07:12:29.132Z,99.90
2023-05-19T07:14:55.848Z,99.90
2023-05-19T07:17:22.834Z,99.90
2023-05-19T07:19:49.606Z,99.90
2023-05-19T07:22:16.389Z,99.90
2023-05-19T07:24:43.101Z,99.90
2023-05-19T07:27:10.059Z,99.90
2023-05-19T07:29:36.744Z,99.90
2023-05-19T07:32:03.577Z,99.90
2023-05-19T07:34:30.348Z,99.90
2023-05-19T07:36:57.078Z,99.90
2023-05-19T07:39:26.369Z,99.90
2023-05-19T07:41:55.792Z,99.90
2023-05-19T07:44:22.628Z,99.90
2023-05-19T07:46:49.376Z,99.90
2023-05-19T07:49:16.070Z,99.90
2023-05-19T07:51:42.872Z,99.90
2023-05-19T07:54:09.683Z,99.90
2023-05-19T07:56:36.433Z,99.90
2023-05-19T07:59:03.580Z,99.90
2023-05-19T08:01:30.652Z,99.90
2023-05-19T08:03:57.862Z,98.80
2023-05-19T08:06:25.439Z,95.70
2023-05-19T08:08:52.409Z,95.00
2023-05-19T08:11:19.167Z,91.70
2023-05-19T08:13:48.870Z,83.80
2023-05-19T08:16:15.937Z,75.10
2023-05-19T08:18:42.763Z,70.60
2023-05-19T08:21:09.564Z,71.70
2023-05-19T08:23:37.455Z,69.10
2023-05-19T08:26:04.548Z,68.60
2023-05-19T08:28:31.527Z,70.00
2023-05-19T08:30:58.263Z,72.80
2023-05-19T08:33:25.093Z,76.30
2023-05-19T08:35:51.813Z,78.50
2023-05-19T08:38:18.572Z,79.70
2023-05-19T08:40:46.431Z,79.70
2023-05-19T08:43:13.192Z,80.90
2023-05-19T08:45:41.037Z,79.30
2023-05-19T08:48:07.837Z,81.10
2023-05-19T08:50:36.678Z,82.00
2023-05-19T08:53:21.045Z,83.00
2023-05-19T08:55:54.829Z,81.60
2023-05-19T08:58:21.831Z,79.00
2023-05-19T09:00:48.730Z,77.90
2023-05-19T09:03:22.714Z,78.40
2023-05-19T09:05:50.342Z,77.10
2023-05-19T09:08:17.165Z,78.20
2023-05-19T09:10:43.915Z,78.70
2023-05-19T09:13:10.711Z,78.60
2023-05-19T09:15:37.500Z,79.50
2023-05-19T09:18:14.100Z,80.40
2023-05-19T09:20:41.625Z,79.50
2023-05-19T09:23:08.608Z,79.20
2023-05-19T09:25:35.648Z,78.80
2023-05-19T09:28:02.688Z,78.10
2023-05-19T09:30:29.512Z,78.70
2023-05-19T09:32:56.313Z,78.80
2023-05-19T09:35:23.275Z,80.10
2023-05-19T09:37:50.047Z,80.10
2023-05-19T09:40:16.820Z,79.50
2023-05-19T09:42:44.403Z,78.80
2023-05-19T09:45:11.538Z,78.10
2023-05-19T09:47:38.710Z,78.70
2023-05-19T09:50:09.247Z,78.50
2023-05-19T09:52:37.074Z,79.40
2023-05-19T09:55:05.252Z,80.40
2023-05-19T09:57:38.158Z,79.90
2023-05-19T10:00:11.486Z,79.70
2023-05-19T10:02:39.759Z,79.20
2023-05-19T10:05:06.792Z,77.70
2023-05-19T10:07:33.542Z,77.30
2023-05-19T10:10:00.250Z,75.40
2023-05-19T10:12:26.993Z,74.40
2023-05-19T10:14:54.822Z,72.50
2023-05-19T10:17:21.681Z,70.50
2023-05-19T10:19:48.483Z,66.30
2023-05-19T10:22:15.172Z,67.30
2023-05-19T10:24:41.895Z,68.20
2023-05-19T10:27:10.253Z,67.40
2023-05-19T10:29:37.986Z,69.40
2023-05-19T10:32:06.765Z,68.50
2023-05-19T10:34:33.597Z,69.40
2023-05-19T10:37:03.404Z,68.90
2023-05-19T10:39:32.051Z,70.10
2023-05-19T10:42:10.960Z,67.90
2023-05-19T10:44:37.693Z,70.50
2023-05-19T10:47:06.423Z,70.90
2023-05-19T10:49:35.078Z,69.70
2023-05-19T10:52:01.853Z,70.70
2023-05-19T10:54:41.194Z,69.50
2023-05-19T10:57:08.334Z,72.50
2023-05-19T10:59:35.737Z,71.50
2023-05-19T11:02:08.756Z,74.30
2023-05-19T11:04:39.364Z,74.40
2023-05-19T11:07:06.235Z,74.20
2023-05-19T11:09:39.969Z,75.20
2023-05-19T11:12:07.302Z,75.80
2023-05-19T11:14:34.622Z,75.10
2023-05-19T11:17:01.525Z,74.70
2023-05-19T11:19:32.162Z,74.50
2023-05-19T11:22:11.828Z,73.70
2023-05-19T11:24:39.936Z,75.60
2023-05-19T11:27:24.897Z,74.40
2023-05-19T11:29:51.958Z,74.20
2023-05-19T11:32:19.990Z,77.10
2023-05-19T11:34:47.000Z,75.40
2023-05-19T11:37:13.861Z,75.90
2023-05-19T11:39:40.644Z,76.10
2023-05-19T11:42:13.577Z,76.10
2023-05-19T11:44:43.134Z,77.20
2023-05-19T11:47:09.858Z,75.20
2023-05-19T11:49:36.632Z,74.40
2023-05-19T11:52:03.902Z,75.60
2023-05-19T11:54:33.989Z,77.30
2023-05-19T11:57:02.396Z,75.90
2023-05-19T11:59:36.206Z,76.00
2023-05-19T12:02:24.992Z,75.60
2023-05-19T12:04:52.191Z,75.30
2023-05-19T12:07:19.626Z,76.30
2023-05-19T12:09:46.773Z,75.90
2023-05-19T12:12:17.088Z,75.00
2023-05-19T12:14:43.904Z,75.40
2023-05-19T12:17:12.117Z,76.10
2023-05-19T12:19:39.242Z,77.40
2023-05-19T12:22:06.563Z,76.40
2023-05-19T12:24:36.885Z,75.80
2023-05-19T12:27:07.562Z,77.50
2023-05-19T12:29:34.596Z,78.50
2023-05-19T12:32:02.004Z,76.00
2023-05-19T12:34:28.866Z,77.40
2023-05-19T12:36:55.613Z,77.90
2023-05-19T12:39:23.446Z,78.70
2023-05-19T12:41:50.231Z,78.20
2023-05-19T12:44:17.074Z,78.30
2023-05-19T12:46:44.087Z,78.80
2023-05-19T12:49:11.085Z,79.20
2023-05-19T12:51:37.842Z,80.00
2023-05-19T12:54:08.038Z,79.60
2023-05-19T12:56:34.825Z,80.40
2023-05-19T12:59:02.043Z,80.40
2023-05-19T13:01:29.271Z,81.70
2023-05-19T13:03:56.442Z,80.00
2023-05-19T13:06:23.463Z,82.00
2023-05-19T13:08:50.233Z,81.20
2023-05-19T13:11:16.946Z,81.60
2023-05-19T13:13:43.762Z,82.50
2023-05-19T13:16:10.675Z,82.90
2023-05-19T13:18:38.439Z,82.50
2023-05-19T13:21:05.915Z,82.10
2023-05-19T13:23:32.692Z,82.10
2023-05-19T13:25:59.404Z,83.10
2023-05-19T13:28:26.373Z,81.30
2023-05-19T13:30:53.199Z,81.10
2023-05-19T13:33:20.045Z,81.50
2023-05-19T13:35:46.763Z,80.70
2023-05-19T13:38:14.596Z,80.40
2023-05-19T13:40:41.391Z,81.50
2023-05-19T13:43:08.749Z,80.00
2023-05-19T13:45:35.774Z,80.10
2023-05-19T13:48:02.758Z,80.00
2023-05-19T13:50:29.645Z,80.00
2023-05-19T13:52:56.350Z,79.20
2023-05-19T13:55:23.595Z,79.10
2023-05-19T13:57:50.995Z,79.50
2023-05-19T14:00:18.321Z,80.50
2023-05-19T14:02:45.238Z,81.30
2023-05-19T14:05:12.150Z,80.80
2023-05-19T14:07:38.875Z,79.60
2023-05-19T14:10:06.863Z,80.10
2023-05-19T14:12:44.988Z,79.80
2023-05-19T14:15:19.131Z,78.70
2023-05-19T14:17:46.282Z,79.00
2023-05-19T14:20:13.227Z,80.20
2023-05-19T14:22:40.048Z,81.80
2023-05-19T14:25:07.110Z,81.60
2023-05-19T14:27:33.822Z,81.10
2023-05-19T14:30:00.650Z,83.10
2023-05-19T14:32:30.108Z,84.30
2023-05-19T14:34:57.171Z,82.70
2023-05-19T14:37:24.385Z,83.00
2023-05-19T14:39:51.095Z,83.80
2023-05-19T14:42:17.824Z,84.00
2023-05-19T14:44:44.714Z,82.00
2023-05-19T14:47:12.504Z,82.40
2023-05-19T14:49:39.473Z,82.80
2023-05-19T14:52:06.336Z,83.50
2023-05-19T14:54:33.876Z,83.40
2023-05-19T14:57:01.532Z,83.90
2023-05-19T14:59:29.606Z,84.20
2023-05-19T15:01:56.399Z,84.60
2023-05-19T15:04:23.335Z,84.20
2023-05-19T15:06:58.184Z,84.00
2023-05-19T15:09:36.134Z,83.50
2023-05-19T15:12:02.933Z,82.60
2023-05-19T15:14:31.022Z,83.40
2023-05-19T15:16:58.316Z,83.90
2023-05-19T15:19:25.313Z,84.10
2023-05-19T15:21:52.116Z,84.90
2023-05-19T15:24:19.229Z,84.30
2023-05-19T15:26:46.166Z,84.30
2023-05-19T15:29:12.955Z,84.60
2023-05-19T15:31:39.753Z,84.00
2023-05-19T15:34:06.619Z,83.00
2023-05-19T15:36:33.339Z,83.30
2023-05-19T15:39:00.060Z,84.30
2023-05-19T15:41:26.880Z,83.90
2023-05-19T15:43:53.737Z,82.40
2023-05-19T15:46:20.632Z,82.30
2023-05-19T15:48:47.531Z,83.20
2023-05-19T15:51:14.294Z,83.70
2023-05-19T15:53:41.115Z,83.80
2023-05-19T15:56:07.943Z,83.90
2023-05-19T15:58:34.688Z,84.40
2023-05-19T16:01:01.400Z,85.00
2023-05-19T16:03:28.243Z,85.70
2023-05-19T16:05:55.047Z,85.70
2023-05-19T16:08:21.865Z,85.50
2023-05-19T16:10:48.591Z,85.30
2023-05-19T16:13:15.395Z,85.70
2023-05-19T16:15:42.380Z,86.30
2023-05-19T16:18:09.308Z,86.70
2023-05-19T16:20:36.125Z,87.80
2023-05-19T16:23:03.289Z,88.00
2023-05-19T16:25:30.162Z,88.00
2023-05-19T16:27:57.001Z,88.40
2023-05-19T16:30:24.622Z,87.70
2023-05-19T16:32:53.185Z,86.90
2023-05-19T16:35:20.662Z,87.60
2023-05-19T16:37:47.436Z,88.30
2023-05-19T16:40:14.190Z,88.50
2023-05-19T16:42:41.134Z,88.30
2023-05-19T16:45:08.255Z,88.50
2023-05-19T16:47:35.624Z,88.80
2023-05-19T16:50:02.585Z,89.00
2023-05-19T16:52:29.337Z,88.70
2023-05-19T16:54:56.201Z,88.90
2023-05-19T16:57:22.977Z,89.60
2023-05-19T16:59:49.845Z,88.30
2023-05-19T17:02:16.632Z,89.40
2023-05-19T17:04:43.390Z,89.80
2023-05-19T17:07:12.069Z,89.50
2023-05-19T17:09:38.871Z,90.00
2023-05-19T17:12:05.737Z,90.50
2023-05-19T17:14:32.465Z,90.70
2023-05-19T17:16:59.398Z,91.30
2023-05-19T17:19:26.544Z,91.60
2023-05-19T17:21:53.434Z,92.00
2023-05-19T17:24:20.150Z,92.20
2023-05-19T17:26:46.869Z,92.30
2023-05-19T17:29:13.644Z,92.30
2023-05-19T17:31:40.657Z,92.70
2023-05-19T17:34:07.479Z,92.70
2023-05-19T17:36:34.161Z,92.70
2023-05-19T17:39:00.894Z,93.00
2023-05-19T17:41:27.697Z,93.20
2023-05-19T17:43:54.468Z,93.40
2023-05-19T17:46:21.327Z,93.60
2023-05-19T17:48:48.073Z,93.60
2023-05-19T17:51:14.864Z,93.80
2023-05-19T17:53:42.499Z,93.90
2023-05-19T17:56:11.332Z,94.20
2023-05-19T17:58:38.542Z,94.30
2023-05-19T18:01:05.377Z,94.30
2023-05-19T18:03:32.385Z,94.60
2023-05-19T18:05:59.294Z,94.80
2023-05-19T18:08:26.158Z,95.10
2023-05-19T18:10:52.913Z,95.50
2023-05-19T18:13:19.685Z,95.60
2023-05-19T18:15:46.769Z,95.80
2023-05-19T18:18:13.646Z,96.20
2023-05-19T18:20:44.178Z,96.30
2023-05-19T18:23:11.410Z,96.40
2023-05-19T18:25:38.205Z,96.70
2023-05-19T18:28:05.086Z,96.60
2023-05-19T18:30:32.287Z,97.10
2023-05-19T18:33:02.100Z,97.10
2023-05-19T18:35:28.935Z,97.40
2023-05-19T18:37:56.574Z,97.90
2023-05-19T18:40:23.414Z,98.10
2023-05-19T18:42:50.376Z,98.20
2023-05-19T18:45:17.122Z,98.50
2023-05-19T18:47:43.892Z,98.90
2023-05-19T18:50:10.863Z,99.50
2023-05-19T18:52:37.630Z,99.90
2023-05-19T18:55:04.599Z,99.90
2023-05-19T18:57:31.605Z,99.90
2023-05-19T18:59:58.670Z,99.90
2023-05-19T19:02:26.226Z,99.90
2023-05-19T19:04:53.061Z,99.90
2023-05-19T19:07:19.816Z,99.90
2023-05-19T19:09:46.495Z,99.90
2023-05-19T19:12:13.220Z,99.90
2023-05-19T19:14:40.060Z,99.90
2023-05-19T19:17:06.759Z,99.90
2023-05-19T19:19:33.588Z,99.90
2023-05-19T19:22:00.348Z,99.90
2023-05-19T19:24:28.562Z,99.90
2023-05-19T19:26:55.340Z,99.90
2023-05-19T19:29:22.291Z,99.90
2023-05-19T19:31:49.220Z,99.90
2023-05-19T19:34:16.081Z,99.90
2023-05-19T19:36:43.924Z,99.90
2023-05-19T19:39:10.668Z,99.90
2023-05-19T19:41:37.590Z,99.90
2023-05-19T19:44:04.549Z,99.90
2023-05-19T19:46:31.458Z,99.90
2023-05-19T19:49:00.327Z,99.90
2023-05-19T19:51:27.548Z,99.90
2023-05-19T19:53:54.410Z,99.90
2023-05-19T19:56:23.641Z,99.90
2023-05-19T19:58:50.789Z,99.90
2023-05-19T20:01:20.303Z,99.90
2023-05-19T20:03:47.339Z,99.90
2023-05-19T20:06:14.469Z,99.90
2023-05-19T20:08:41.478Z,99.90
2023-05-19T20:11:08.250Z,99.90
2023-05-19T20:13:35.072Z,99.90
2023-05-19T20:16:01.884Z,99.90
2023-05-19T20:18:29.929Z,99.90
2023-05-19T20:20:56.922Z,99.90
2023-05-19T20:23:23.638Z,99.90
2023-05-19T20:26:02.958Z,99.90
2023-05-19T20:28:37.406Z,99.90
2023-05-19T20:31:04.707Z,99.90
2023-05-19T20:33:31.805Z,99.90
2023-05-19T20:35:58.526Z,99.90
2023-05-19T20:38:25.377Z,99.90
2023-05-19T20:40:52.699Z,99.90
2023-05-19T20:43:19.443Z,99.90
2023-05-19T20:45:46.542Z,99.90
2023-05-19T20:48:13.452Z,99.90
2023-05-19T20:50:40.564Z,99.90
2023-05-19T20:53:07.541Z,99.90
2023-05-19T20:55:36.266Z,99.90
2023-05-19T20:58:03.179Z,99.90
2023-05-19T21:00:30.682Z,99.90
2023-05-19T21:02:57.877Z,99.90
2023-05-19T21:05:24.893Z,99.90
2023-05-19T21:07:51.682Z,99.90
2023-05-19T21:10:18.514Z,99.90
2023-05-19T21:12:46.454Z,99.90
2023-05-19T21:15:13.232Z,99.90
2023-05-19T21:17:40.012Z,99.90
2023-05-19T21:20:07.084Z,99.90
2023-05-19T21:22:35.642Z,99.90
2023-05-19T21:25:02.532Z,99.90
2023-05-19T21:27:29.412Z,99.90
2023-05-19T21:29:56.215Z,99.90
2023-05-19T21:32:22.947Z,99.90
2023-05-19T21:34:49.796Z,99.90
2023-05-19T21:37:17.661Z,99.90
2023-05-19T21:39:44.516Z,99.90
2023-05-19T21:42:11.397Z,99.90
2023-05-19T21:44:38.252Z,99.90
2023-05-19T21:47:05.126Z,99.90
2023-05-19T21:49:31.965Z,99.90
2023-05-19T21:51:58.747Z,99.90
2023-05-19T21:54:25.503Z,99.90
2023-05-19T21:56:52.280Z,99.90
2023-05-19T21:59:23.170Z,99.90
2023-05-19T22:01:50.199Z,99.90
2023-05-19T22:04:18.505Z,99.90
2023-05-19T22:06:45.652Z,99.90
2023-05-19T22:09:12.785Z,99.90
2023-05-19T22:11:39.746Z,99.90
2023-05-19T22:14:06.882Z,99.90
2023-05-19T22:16:33.895Z,99.90
2023-05-19T22:19:00.854Z,99.90
2023-05-19T22:21:27.721Z,99.90
2023-05-19T22:23:54.586Z,99.90
2023-05-19T22:26:22.139Z,99.90
2023-05-19T22:28:49.343Z,99.90
2023-05-19T22:31:16.442Z,99.90
2023-05-19T22:33:43.251Z,99.90
2023-05-19T22:36:11.101Z,99.90
2023-05-19T22:38:37.974Z,99.90
2023-05-19T22:41:04.928Z,99.90
2023-05-19T22:43:31.669Z,99.90
2023-05-19T22:45:58.431Z,99.90
2023-05-19T22:48:25.326Z,99.90
2023-05-19T22:50:52.060Z,99.90
2023-05-19T22:53:18.798Z,99.90
2023-05-19T22:55:45.653Z,99.90
2023-05-19T22:58:12.388Z,99.90
2023-05-19T23:00:39.222Z,99.90
2023-05-19T23:03:06.134Z,99.90
2023-05-19T23:05:33.102Z,99.90
2023-05-19T23:07:59.870Z,99.90
2023-05-19T23:10:26.581Z,99.90
2023-05-19T23:12:53.907Z,99.90
2023-05-19T23:15:20.688Z,99.90
2023-05-19T23:17:47.391Z,99.90
2023-05-19T23:20:14.204Z,99.90
2023-05-19T23:22:40.999Z,99.90
2023-05-19T23:25:08.018Z,99.90
2023-05-19T23:27:37.715Z,99.90
2023-05-19T23:30:04.656Z,99.90
2023-05-19T23:32:31.479Z,99.90
2023-05-19T23:34:58.209Z,99.90
2023-05-19T23:37:24.940Z,99.90
2023-05-19T23:39:51.672Z,99.90
2023-05-19T23:42:18.480Z,99.90
2023-05-19T23:44:45.575Z,99.90
2023-05-19T23:47:12.381Z,99.90
2023-05-19T23:49:39.156Z,99.90
2023-05-19T23:52:06.156Z,99.90
2023-05-19T23:54:32.925Z,99.90
2023-05-19T23:57:01.265Z,99.90
2023-05-19T23:59:28.062Z,99.90
